Terminal Aerodrome Forecast
Issued by NWS

Home | Current Version | Previous Version | Text Only | Print | Product List | Glossary On
Versions: 1 2 3 4 5 6 7 8 9 10 11 12 13 14
016
FTUS46 KMTR 211720
TAFMRY
TAF
KMRY 211720Z 2118/2218 19008KT P6SM VCSH SCT030 BKN050
     FM212000 24010G15KT P6SM VCSH SCT040 BKN060
     FM220200 24009KT P6SM VCSH BKN050
     FM220600 18009KT P6SM SCT030 OVC050=

USA.gov is the U.S. government's official web portal to all federal, state and local government web resources and services.